sensor_id;sensor_type;location;lat;lon;timestamp;temperature;humidity
11820;DHT22;5967;48.944;9.240;2022-07-29T00:00:57;19.80;99.90
11820;DHT22;5967;48.944;9.240;2022-07-29T00:03:23;19.80;99.90
11820;DHT22;5967;48.944;9.240;2022-07-29T00:05:49;19.80;99.90
11820;DHT22;5967;48.944;9.240;2022-07-29T00:08:14;19.70;99.90
11820;DHT22;5967;48.944;9.240;2022-07-29T00:10:41;19.70;99.90
11820;DHT22;5967;48.944;9.240;2022-07-29T00:13:07;19.70;99.90
11820;DHT22;5967;48.944;9.240;2022-07-29T00:15:33;19.60;99.90
11820;DHT22;5967;48.944;9.240;2022-07-29T00:17:58;19.50;99.90
11820;DHT22;5967;48.944;9.240;2022-07-29T00:20:24;19.50;99.90
11820;DHT22;5967;48.944;9.240;2022-07-29T00:22:50;19.40;99.90
11820;DHT22;5967;48.944;9.240;2022-07-29T00:25:15;19.50;99.90
11820;DHT22;5967;48.944;9.240;2022-07-29T00:27:41;19.40;99.90
11820;DHT22;5967;48.944;9.240;2022-07-29T00:30:07;19.40;99.90
11820;DHT22;5967;48.944;9.240;2022-07-29T00:32:33;19.40;99.90
11820;DHT22;5967;48.944;9.240;2022-07-29T00:34:59;19.30;99.90
11820;DHT22;5967;48.944;9.240;2022-07-29T00:37:43;19.30;99.90
11820;DHT22;5967;48.944;9.240;2022-07-29T00:40:09;19.30;99.90
11820;DHT22;5967;48.944;9.240;2022-07-29T00:42:46;19.20;99.90
11820;DHT22;5967;48.944;9.240;2022-07-29T00:45:13;19.10;99.90
11820;DHT22;5967;48.944;9.240;2022-07-29T00:47:39;19.10;99.90
11820;DHT22;5967;48.944;9.240;2022-07-29T00:50:07;19.10;99.90
11820;DHT22;5967;48.944;9.240;2022-07-29T00:52:34;19.10;99.90
11820;DHT22;5967;48.944;9.240;2022-07-29T00:55:02;19.00;99.90
11820;DHT22;5967;48.944;9.240;2022-07-29T00:57:27;19.10;99.90
11820;DHT22;5967;48.944;9.240;2022-07-29T00:59:53;19.10;99.90
11820;DHT22;5967;48.944;9.240;2022-07-29T01:02:19;19.10;99.90
11820;DHT22;5967;48.944;9.240;2022-07-29T01:04:44;19.00;99.90
11820;DHT22;5967;48.944;9.240;2022-07-29T01:07:10;19.00;99.90
11820;DHT22;5967;48.944;9.240;2022-07-29T01:09:37;19.00;99.90
11820;DHT22;5967;48.944;9.240;2022-07-29T01:12:03;19.00;99.90
11820;DHT22;5967;48.944;9.240;2022-07-29T01:14:30;19.00;99.90
11820;DHT22;5967;48.944;9.240;2022-07-29T01:17:12;19.00;99.90
11820;DHT22;5967;48.944;9.240;2022-07-29T01:25:23;19.00;99.90
11820;DHT22;5967;48.944;9.240;2022-07-29T01:29:11;19.00;99.90
11820;DHT22;5967;48.944;9.240;2022-07-29T01:38:00;18.90;99.90
11820;DHT22;5967;48.944;9.240;2022-07-29T01:40:29;18.90;99.90
11820;DHT22;5967;48.944;9.240;2022-07-29T01:42:58;18.90;99.90
11820;DHT22;5967;48.944;9.240;2022-07-29T01:45:38;18.90;99.90
11820;DHT22;5967;48.944;9.240;2022-07-29T01:50:50;18.80;99.90
11820;DHT22;5967;48.944;9.240;2022-07-29T01:53:26;18.80;99.90
11820;DHT22;5967;48.944;9.240;2022-07-29T01:55:55;18.80;99.90
11820;DHT22;5967;48.944;9.240;2022-07-29T01:58:23;18.80;99.90
11820;DHT22;5967;48.944;9.240;2022-07-29T02:00:50;18.70;99.90
11820;DHT22;5967;48.944;9.240;2022-07-29T02:03:17;18.60;99.90
11820;DHT22;5967;48.944;9.240;2022-07-29T02:05:45;18.50;99.90
11820;DHT22;5967;48.944;9.240;2022-07-29T02:08:13;18.50;99.90
11820;DHT22;5967;48.944;9.240;2022-07-29T02:10:40;18.40;99.90
11820;DHT22;5967;48.944;9.240;2022-07-29T02:19:43;18.40;99.90
11820;DHT22;5967;48.944;9.240;2022-07-29T02:25:35;18.30;99.90
11820;DHT22;5967;48.944;9.240;2022-07-29T02:28:02;18.30;99.90
11820;DHT22;5967;48.944;9.240;2022-07-29T02:30:30;18.30;99.90
11820;DHT22;5967;48.944;9.240;2022-07-29T02:32:58;18.20;99.90
11820;DHT22;5967;48.944;9.240;2022-07-29T02:35:24;18.20;99.90
11820;DHT22;5967;48.944;9.240;2022-07-29T02:37:50;18.30;99.90
11820;DHT22;5967;48.944;9.240;2022-07-29T02:40:37;18.30;99.90
11820;DHT22;5967;48.944;9.240;2022-07-29T02:43:05;18.20;99.90
11820;DHT22;5967;48.944;9.240;2022-07-29T02:45:33;18.30;99.90
11820;DHT22;5967;48.944;9.240;2022-07-29T02:48:03;18.20;99.90
11820;DHT22;5967;48.944;9.240;2022-07-29T02:50:33;18.30;99.90
11820;DHT22;5967;48.944;9.240;2022-07-29T02:56:14;18.20;99.90
11820;DHT22;5967;48.944;9.240;2022-07-29T02:58:46;18.20;99.90
11820;DHT22;5967;48.944;9.240;2022-07-29T03:01:16;18.10;99.90
11820;DHT22;5967;48.944;9.240;2022-07-29T03:03:45;18.00;99.90
11820;DHT22;5967;48.944;9.240;2022-07-29T03:06:13;18.00;99.90
11820;DHT22;5967;48.944;9.240;2022-07-29T03:08:44;18.00;99.90
11820;DHT22;5967;48.944;9.240;2022-07-29T03:11:11;18.00;99.90
11820;DHT22;5967;48.944;9.240;2022-07-29T03:13:37;18.10;99.90
11820;DHT22;5967;48.944;9.240;2022-07-29T03:16:05;18.10;99.90
11820;DHT22;5967;48.944;9.240;2022-07-29T03:18:31;18.10;99.90
11820;DHT22;5967;48.944;9.240;2022-07-29T03:20:57;18.10;99.90
11820;DHT22;5967;48.944;9.240;2022-07-29T03:23:23;18.10;99.90
11820;DHT22;5967;48.944;9.240;2022-07-29T03:25:51;18.10;99.90
11820;DHT22;5967;48.944;9.240;2022-07-29T03:28:17;18.10;99.90
11820;DHT22;5967;48.944;9.240;2022-07-29T03:30:43;18.10;99.90
11820;DHT22;5967;48.944;9.240;2022-07-29T03:33:08;18.00;99.90
11820;DHT22;5967;48.944;9.240;2022-07-29T03:35:34;18.00;99.90
11820;DHT22;5967;48.944;9.240;2022-07-29T03:37:59;18.00;99.90
11820;DHT22;5967;48.944;9.240;2022-07-29T03:43:11;18.00;99.90
11820;DHT22;5967;48.944;9.240;2022-07-29T03:45:38;18.00;99.90
11820;DHT22;5967;48.944;9.240;2022-07-29T03:48:09;18.00;99.90
11820;DHT22;5967;48.944;9.240;2022-07-29T03:50:35;18.00;99.90
11820;DHT22;5967;48.944;9.240;2022-07-29T03:53:02;18.00;99.90
11820;DHT22;5967;48.944;9.240;2022-07-29T03:55:30;18.00;99.90
11820;DHT22;5967;48.944;9.240;2022-07-29T03:57:57;18.00;99.90
11820;DHT22;5967;48.944;9.240;2022-07-29T04:00:26;18.00;99.90
11820;DHT22;5967;48.944;9.240;2022-07-29T04:02:52;18.00;99.90
11820;DHT22;5967;48.944;9.240;2022-07-29T04:05:18;18.00;99.90
11820;DHT22;5967;48.944;9.240;2022-07-29T04:07:47;18.00;99.90
11820;DHT22;5967;48.944;9.240;2022-07-29T04:10:14;18.10;99.90
11820;DHT22;5967;48.944;9.240;2022-07-29T04:12:44;18.20;99.90
11820;DHT22;5967;48.944;9.240;2022-07-29T04:15:13;18.20;99.90
11820;DHT22;5967;48.944;9.240;2022-07-29T04:17:38;18.30;99.90
11820;DHT22;5967;48.944;9.240;2022-07-29T04:20:04;18.30;99.90
11820;DHT22;5967;48.944;9.240;2022-07-29T04:22:30;18.40;99.90
11820;DHT22;5967;48.944;9.240;2022-07-29T04:24:56;18.40;99.90
11820;DHT22;5967;48.944;9.240;2022-07-29T04:27:21;18.50;99.90
11820;DHT22;5967;48.944;9.240;2022-07-29T04:29:47;18.60;99.90
11820;DHT22;5967;48.944;9.240;2022-07-29T04:32:13;18.60;99.90
11820;DHT22;5967;48.944;9.240;2022-07-29T04:34:38;18.70;99.90
11820;DHT22;5967;48.944;9.240;2022-07-29T04:37:04;18.70;99.90
11820;DHT22;5967;48.944;9.240;2022-07-29T04:39:29;18.70;99.90
11820;DHT22;5967;48.944;9.240;2022-07-29T04:41:55;18.70;99.90
11820;DHT22;5967;48.944;9.240;2022-07-29T04:44:21;18.80;99.90
11820;DHT22;5967;48.944;9.240;2022-07-29T04:46:47;18.80;99.90
11820;DHT22;5967;48.944;9.240;2022-07-29T04:49:13;18.80;99.90
11820;DHT22;5967;48.944;9.240;2022-07-29T04:51:38;18.80;99.90
11820;DHT22;5967;48.944;9.240;2022-07-29T04:54:04;18.80;99.90
11820;DHT22;5967;48.944;9.240;2022-07-29T04:56:30;18.80;99.90
11820;DHT22;5967;48.944;9.240;2022-07-29T04:58:58;18.80;99.90
11820;DHT22;5967;48.944;9.240;2022-07-29T05:01:24;18.80;99.90
11820;DHT22;5967;48.944;9.240;2022-07-29T05:03:49;18.70;99.90
11820;DHT22;5967;48.944;9.240;2022-07-29T05:06:15;18.70;99.90
11820;DHT22;5967;48.944;9.240;2022-07-29T05:08:41;18.70;99.90
11820;DHT22;5967;48.944;9.240;2022-07-29T05:11:06;18.70;99.90
11820;DHT22;5967;48.944;9.240;2022-07-29T05:13:32;18.70;99.90
11820;DHT22;5967;48.944;9.240;2022-07-29T05:15:59;18.80;99.90
11820;DHT22;5967;48.944;9.240;2022-07-29T05:18:25;18.90;99.90
11820;DHT22;5967;48.944;9.240;2022-07-29T05:20:51;18.90;99.90
11820;DHT22;5967;48.944;9.240;2022-07-29T05:23:17;19.10;99.90
11820;DHT22;5967;48.944;9.240;2022-07-29T05:25:43;19.20;99.90
11820;DHT22;5967;48.944;9.240;2022-07-29T05:28:08;19.30;99.90
11820;DHT22;5967;48.944;9.240;2022-07-29T05:30:34;19.30;99.90
11820;DHT22;5967;48.944;9.240;2022-07-29T05:33:00;19.40;99.90
11820;DHT22;5967;48.944;9.240;2022-07-29T05:35:26;19.40;99.90
11820;DHT22;5967;48.944;9.240;2022-07-29T05:37:54;19.40;99.90
11820;DHT22;5967;48.944;9.240;2022-07-29T05:40:20;19.50;99.90
11820;DHT22;5967;48.944;9.240;2022-07-29T05:42:45;19.60;99.90
11820;DHT22;5967;48.944;9.240;2022-07-29T05:45:11;19.70;99.90
11820;DHT22;5967;48.944;9.240;2022-07-29T05:47:37;19.90;99.90
11820;DHT22;5967;48.944;9.240;2022-07-29T05:50:03;20.10;99.90
11820;DHT22;5967;48.944;9.240;2022-07-29T05:52:29;20.30;99.90
11820;DHT22;5967;48.944;9.240;2022-07-29T05:54:55;20.50;99.90
11820;DHT22;5967;48.944;9.240;2022-07-29T05:57:23;20.60;99.90
11820;DHT22;5967;48.944;9.240;2022-07-29T05:59:49;20.80;99.90
11820;DHT22;5967;48.944;9.240;2022-07-29T06:02:16;20.90;99.90
11820;DHT22;5967;48.944;9.240;2022-07-29T06:04:41;21.00;99.90
11820;DHT22;5967;48.944;9.240;2022-07-29T06:07:07;21.00;99.90
11820;DHT22;5967;48.944;9.240;2022-07-29T06:09:33;21.10;99.90
11820;DHT22;5967;48.944;9.240;2022-07-29T06:11:59;21.10;99.90
11820;DHT22;5967;48.944;9.240;2022-07-29T06:14:25;21.10;99.90
11820;DHT22;5967;48.944;9.240;2022-07-29T06:16:55;21.10;99.90
11820;DHT22;5967;48.944;9.240;2022-07-29T06:19:21;21.10;99.90
11820;DHT22;5967;48.944;9.240;2022-07-29T06:21:46;21.10;99.90
11820;DHT22;5967;48.944;9.240;2022-07-29T06:24:14;21.20;99.90
11820;DHT22;5967;48.944;9.240;2022-07-29T06:26:41;21.20;99.90
11820;DHT22;5967;48.944;9.240;2022-07-29T06:29:07;21.30;99.90
11820;DHT22;5967;48.944;9.240;2022-07-29T06:31:33;21.30;99.90
11820;DHT22;5967;48.944;9.240;2022-07-29T06:33:59;21.40;99.90
11820;DHT22;5967;48.944;9.240;2022-07-29T06:36:25;21.40;99.90
11820;DHT22;5967;48.944;9.240;2022-07-29T06:38:51;21.40;99.90
11820;DHT22;5967;48.944;9.240;2022-07-29T06:41:19;21.50;99.90
11820;DHT22;5967;48.944;9.240;2022-07-29T06:43:45;21.50;99.90
11820;DHT22;5967;48.944;9.240;2022-07-29T06:46:15;21.60;99.90
11820;DHT22;5967;48.944;9.240;2022-07-29T06:48:42;21.60;99.90
11820;DHT22;5967;48.944;9.240;2022-07-29T06:51:09;21.60;99.90
11820;DHT22;5967;48.944;9.240;2022-07-29T06:53:35;21.70;99.90
11820;DHT22;5967;48.944;9.240;2022-07-29T06:56:02;21.70;99.90
11820;DHT22;5967;48.944;9.240;2022-07-29T06:58:37;21.80;99.90
11820;DHT22;5967;48.944;9.240;2022-07-29T07:01:08;21.90;99.90
11820;DHT22;5967;48.944;9.240;2022-07-29T07:03:34;21.90;99.90
11820;DHT22;5967;48.944;9.240;2022-07-29T07:06:00;22.00;99.90
11820;DHT22;5967;48.944;9.240;2022-07-29T07:08:34;22.00;99.90
11820;DHT22;5967;48.944;9.240;2022-07-29T07:11:00;22.10;99.90
11820;DHT22;5967;48.944;9.240;2022-07-29T07:13:25;22.10;99.90
11820;DHT22;5967;48.944;9.240;2022-07-29T07:15:54;22.20;99.90
11820;DHT22;5967;48.944;9.240;2022-07-29T07:18:20;22.20;99.90
11820;DHT22;5967;48.944;9.240;2022-07-29T07:20:46;22.30;99.90
11820;DHT22;5967;48.944;9.240;2022-07-29T07:23:11;22.40;99.90
11820;DHT22;5967;48.944;9.240;2022-07-29T07:25:39;22.40;99.90
11820;DHT22;5967;48.944;9.240;2022-07-29T07:28:05;22.50;99.90
11820;DHT22;5967;48.944;9.240;2022-07-29T07:30:31;22.60;99.90
11820;DHT22;5967;48.944;9.240;2022-07-29T07:32:56;22.70;99.90
11820;DHT22;5967;48.944;9.240;2022-07-29T07:35:22;22.70;99.90
11820;DHT22;5967;48.944;9.240;2022-07-29T07:37:48;22.80;99.90
11820;DHT22;5967;48.944;9.240;2022-07-29T07:40:18;22.70;99.90
11820;DHT22;5967;48.944;9.240;2022-07-29T07:42:53;22.80;99.90
11820;DHT22;5967;48.944;9.240;2022-07-29T07:45:24;22.90;99.90
11820;DHT22;5967;48.944;9.240;2022-07-29T07:48:01;23.00;99.90
11820;DHT22;5967;48.944;9.240;2022-07-29T07:50:41;23.10;99.90
11820;DHT22;5967;48.944;9.240;2022-07-29T07:53:09;23.30;99.90
11820;DHT22;5967;48.944;9.240;2022-07-29T07:55:44;23.30;99.90
11820;DHT22;5967;48.944;9.240;2022-07-29T07:58:09;23.40;99.90
11820;DHT22;5967;48.944;9.240;2022-07-29T08:00:38;23.50;99.90
11820;DHT22;5967;48.944;9.240;2022-07-29T08:03:04;23.60;99.90
11820;DHT22;5967;48.944;9.240;2022-07-29T08:05:29;23.70;99.90
11820;DHT22;5967;48.944;9.240;2022-07-29T08:07:55;23.80;99.90
11820;DHT22;5967;48.944;9.240;2022-07-29T08:10:21;23.90;99.90
11820;DHT22;5967;48.944;9.240;2022-07-29T08:13:09;24.00;99.90
11820;DHT22;5967;48.944;9.240;2022-07-29T08:15:36;24.00;99.90
11820;DHT22;5967;48.944;9.240;2022-07-29T08:18:03;24.20;99.90
11820;DHT22;5967;48.944;9.240;2022-07-29T08:20:29;24.30;99.90
11820;DHT22;5967;48.944;9.240;2022-07-29T08:22:55;24.40;99.90
11820;DHT22;5967;48.944;9.240;2022-07-29T08:25:21;24.50;99.90
11820;DHT22;5967;48.944;9.240;2022-07-29T08:27:47;24.50;99.90
11820;DHT22;5967;48.944;9.240;2022-07-29T08:30:12;24.50;99.90
11820;DHT22;5967;48.944;9.240;2022-07-29T08:32:38;24.50;99.90
11820;DHT22;5967;48.944;9.240;2022-07-29T08:35:04;24.60;99.90
11820;DHT22;5967;48.944;9.240;2022-07-29T08:37:30;24.70;99.90
11820;DHT22;5967;48.944;9.240;2022-07-29T08:39:55;24.80;99.90
11820;DHT22;5967;48.944;9.240;2022-07-29T08:42:21;24.90;99.90
11820;DHT22;5967;48.944;9.240;2022-07-29T08:44:47;25.00;99.90
11820;DHT22;5967;48.944;9.240;2022-07-29T08:47:16;25.10;99.90
11820;DHT22;5967;48.944;9.240;2022-07-29T08:49:42;25.10;99.90
11820;DHT22;5967;48.944;9.240;2022-07-29T08:52:10;25.20;99.90
11820;DHT22;5967;48.944;9.240;2022-07-29T08:54:38;25.30;99.90
11820;DHT22;5967;48.944;9.240;2022-07-29T08:57:04;25.40;99.90
11820;DHT22;5967;48.944;9.240;2022-07-29T08:59:30;25.40;99.90
11820;DHT22;5967;48.944;9.240;2022-07-29T09:01:58;25.40;99.90
11820;DHT22;5967;48.944;9.240;2022-07-29T09:04:29;25.30;99.90
11820;DHT22;5967;48.944;9.240;2022-07-29T09:06:57;25.40;99.90
11820;DHT22;5967;48.944;9.240;2022-07-29T09:09:25;25.50;99.90
11820;DHT22;5967;48.944;9.240;2022-07-29T09:11:51;25.50;99.90
11820;DHT22;5967;48.944;9.240;2022-07-29T09:14:18;25.60;99.90
11820;DHT22;5967;48.944;9.240;2022-07-29T09:16:50;25.60;99.90
11820;DHT22;5967;48.944;9.240;2022-07-29T09:19:26;25.50;99.90
11820;DHT22;5967;48.944;9.240;2022-07-29T09:21:52;25.50;99.90
11820;DHT22;5967;48.944;9.240;2022-07-29T09:24:25;25.60;99.90
11820;DHT22;5967;48.944;9.240;2022-07-29T09:26:51;25.60;99.90
11820;DHT22;5967;48.944;9.240;2022-07-29T09:29:19;25.50;99.90
11820;DHT22;5967;48.944;9.240;2022-07-29T09:31:46;25.60;99.90
11820;DHT22;5967;48.944;9.240;2022-07-29T09:34:15;25.60;99.90
11820;DHT22;5967;48.944;9.240;2022-07-29T09:36:45;25.80;99.90
11820;DHT22;5967;48.944;9.240;2022-07-29T09:39:13;25.80;99.90
11820;DHT22;5967;48.944;9.240;2022-07-29T09:44:11;25.90;99.90
11820;DHT22;5967;48.944;9.240;2022-07-29T09:46:37;26.00;99.90
11820;DHT22;5967;48.944;9.240;2022-07-29T09:49:10;26.10;99.90
11820;DHT22;5967;48.944;9.240;2022-07-29T09:51:36;26.10;99.90
11820;DHT22;5967;48.944;9.240;2022-07-29T09:54:24;26.20;99.90
11820;DHT22;5967;48.944;9.240;2022-07-29T09:56:48;26.30;99.90
11820;DHT22;5967;48.944;9.240;2022-07-29T09:59:14;26.40;99.90
11820;DHT22;5967;48.944;9.240;2022-07-29T10:01:40;26.50;99.90
11820;DHT22;5967;48.944;9.240;2022-07-29T10:04:06;26.70;99.90
11820;DHT22;5967;48.944;9.240;2022-07-29T10:06:32;27.00;99.90
11820;DHT22;5967;48.944;9.240;2022-07-29T10:09:08;27.10;99.90
11820;DHT22;5967;48.944;9.240;2022-07-29T10:11:34;27.20;99.90
11820;DHT22;5967;48.944;9.240;2022-07-29T10:14:03;27.20;99.90
11820;DHT22;5967;48.944;9.240;2022-07-29T10:16:31;27.20;99.90
11820;DHT22;5967;48.944;9.240;2022-07-29T10:19:00;27.20;99.90
11820;DHT22;5967;48.944;9.240;2022-07-29T10:21:29;27.20;99.90
11820;DHT22;5967;48.944;9.240;2022-07-29T10:23:57;27.30;99.90
11820;DHT22;5967;48.944;9.240;2022-07-29T10:26:24;27.20;99.90
11820;DHT22;5967;48.944;9.240;2022-07-29T10:28:49;27.20;99.90
11820;DHT22;5967;48.944;9.240;2022-07-29T10:31:38;27.10;99.90
11820;DHT22;5967;48.944;9.240;2022-07-29T10:34:20;27.10;99.90
11820;DHT22;5967;48.944;9.240;2022-07-29T10:36:57;27.30;99.90
11820;DHT22;5967;48.944;9.240;2022-07-29T10:39:36;27.20;99.90
11820;DHT22;5967;48.944;9.240;2022-07-29T10:44:42;27.20;99.90
11820;DHT22;5967;48.944;9.240;2022-07-29T10:47:23;27.20;99.90
11820;DHT22;5967;48.944;9.240;2022-07-29T10:49:59;27.20;99.90
11820;DHT22;5967;48.944;9.240;2022-07-29T10:52:54;27.10;99.90
11820;DHT22;5967;48.944;9.240;2022-07-29T10:55:33;27.10;99.90
11820;DHT22;5967;48.944;9.240;2022-07-29T10:58:17;27.00;99.90
11820;DHT22;5967;48.944;9.240;2022-07-29T11:00:47;26.90;99.90
11820;DHT22;5967;48.944;9.240;2022-07-29T11:06:17;26.70;99.90
11820;DHT22;5967;48.944;9.240;2022-07-29T11:08:42;26.60;99.90
11820;DHT22;5967;48.944;9.240;2022-07-29T11:13:53;26.50;99.90
11820;DHT22;5967;48.944;9.240;2022-07-29T11:16:22;26.40;99.90
11820;DHT22;5967;48.944;9.240;2022-07-29T11:21:44;26.40;99.90
11820;DHT22;5967;48.944;9.240;2022-07-29T11:24:29;26.40;99.90
11820;DHT22;5967;48.944;9.240;2022-07-29T11:27:16;26.40;99.90
11820;DHT22;5967;48.944;9.240;2022-07-29T11:32:18;26.40;99.90
11820;DHT22;5967;48.944;9.240;2022-07-29T11:34:47;26.40;99.90
11820;DHT22;5967;48.944;9.240;2022-07-29T11:37:22;26.40;99.90
11820;DHT22;5967;48.944;9.240;2022-07-29T11:44:56;26.40;99.90
11820;DHT22;5967;48.944;9.240;2022-07-29T11:47:24;26.40;99.90
11820;DHT22;5967;48.944;9.240;2022-07-29T11:49:50;26.70;99.90
11820;DHT22;5967;48.944;9.240;2022-07-29T11:52:22;26.90;99.90
11820;DHT22;5967;48.944;9.240;2022-07-29T11:54:51;27.10;99.90
11820;DHT22;5967;48.944;9.240;2022-07-29T11:57:18;27.30;99.90
11820;DHT22;5967;48.944;9.240;2022-07-29T11:59:47;27.40;99.90
11820;DHT22;5967;48.944;9.240;2022-07-29T12:02:14;27.50;99.90
11820;DHT22;5967;48.944;9.240;2022-07-29T12:07:15;27.60;99.90
11820;DHT22;5967;48.944;9.240;2022-07-29T12:09:49;27.80;99.90
11820;DHT22;5967;48.944;9.240;2022-07-29T12:12:16;28.00;99.90
11820;DHT22;5967;48.944;9.240;2022-07-29T12:14:47;28.10;99.90
11820;DHT22;5967;48.944;9.240;2022-07-29T12:19:55;28.10;99.90
11820;DHT22;5967;48.944;9.240;2022-07-29T12:22:27;27.90;99.90
11820;DHT22;5967;48.944;9.240;2022-07-29T12:24:54;27.70;99.90
11820;DHT22;5967;48.944;9.240;2022-07-29T12:27:23;27.60;99.90
11820;DHT22;5967;48.944;9.240;2022-07-29T12:30:20;27.40;99.90
11820;DHT22;5967;48.944;9.240;2022-07-29T12:32:48;27.30;99.90
11820;DHT22;5967;48.944;9.240;2022-07-29T12:35:30;27.10;99.90
11820;DHT22;5967;48.944;9.240;2022-07-29T12:37:56;26.90;99.90
11820;DHT22;5967;48.944;9.240;2022-07-29T12:40:32;26.80;99.90
11820;DHT22;5967;48.944;9.240;2022-07-29T12:43:16;26.80;99.90
11820;DHT22;5967;48.944;9.240;2022-07-29T12:45:50;26.90;99.90
11820;DHT22;5967;48.944;9.240;2022-07-29T12:48:37;27.00;99.90
11820;DHT22;5967;48.944;9.240;2022-07-29T12:51:06;27.10;99.90
11820;DHT22;5967;48.944;9.240;2022-07-29T12:53:36;27.20;99.90
11820;DHT22;5967;48.944;9.240;2022-07-29T12:56:15;27.20;99.90
11820;DHT22;5967;48.944;9.240;2022-07-29T12:58:42;27.10;99.90
11820;DHT22;5967;48.944;9.240;2022-07-29T13:01:15;27.20;99.90
11820;DHT22;5967;48.944;9.240;2022-07-29T13:11:50;26.80;99.90
11820;DHT22;5967;48.944;9.240;2022-07-29T13:14:41;26.70;99.90
11820;DHT22;5967;48.944;9.240;2022-07-29T13:17:15;26.70;99.90
11820;DHT22;5967;48.944;9.240;2022-07-29T13:22:11;26.60;99.90
11820;DHT22;5967;48.944;9.240;2022-07-29T13:24:58;26.50;99.90
11820;DHT22;5967;48.944;9.240;2022-07-29T13:27:27;26.50;99.90
11820;DHT22;5967;48.944;9.240;2022-07-29T13:29:54;26.40;99.90
11820;DHT22;5967;48.944;9.240;2022-07-29T13:32:22;26.40;99.90
11820;DHT22;5967;48.944;9.240;2022-07-29T13:34:48;26.30;99.90
11820;DHT22;5967;48.944;9.240;2022-07-29T13:37:14;26.30;99.90
11820;DHT22;5967;48.944;9.240;2022-07-29T13:39:39;26.20;99.90
11820;DHT22;5967;48.944;9.240;2022-07-29T13:42:07;26.20;99.90
11820;DHT22;5967;48.944;9.240;2022-07-29T13:44:34;26.20;99.90
11820;DHT22;5967;48.944;9.240;2022-07-29T13:46:59;26.20;99.90
11820;DHT22;5967;48.944;9.240;2022-07-29T13:49:25;26.20;99.90
11820;DHT22;5967;48.944;9.240;2022-07-29T13:51:51;26.30;99.90
11820;DHT22;5967;48.944;9.240;2022-07-29T13:54:17;26.40;99.90
11820;DHT22;5967;48.944;9.240;2022-07-29T13:56:43;26.50;99.90
11820;DHT22;5967;48.944;9.240;2022-07-29T13:59:08;26.60;99.90
11820;DHT22;5967;48.944;9.240;2022-07-29T14:01:35;26.70;99.90
11820;DHT22;5967;48.944;9.240;2022-07-29T14:04:01;26.70;99.90
11820;DHT22;5967;48.944;9.240;2022-07-29T14:06:27;26.80;99.90
11820;DHT22;5967;48.944;9.240;2022-07-29T14:08:52;26.80;99.90
11820;DHT22;5967;48.944;9.240;2022-07-29T14:11:18;26.80;99.90
11820;DHT22;5967;48.944;9.240;2022-07-29T14:13:53;26.70;99.90
11820;DHT22;5967;48.944;9.240;2022-07-29T14:16:18;26.70;99.90
11820;DHT22;5967;48.944;9.240;2022-07-29T14:18:44;26.70;99.90
11820;DHT22;5967;48.944;9.240;2022-07-29T14:21:09;26.70;99.90
11820;DHT22;5967;48.944;9.240;2022-07-29T14:23:36;26.70;99.90
11820;DHT22;5967;48.944;9.240;2022-07-29T14:26:01;26.60;99.90
11820;DHT22;5967;48.944;9.240;2022-07-29T14:28:28;26.60;99.90
11820;DHT22;5967;48.944;9.240;2022-07-29T14:30:53;26.70;99.90
11820;DHT22;5967;48.944;9.240;2022-07-29T14:33:19;26.70;99.90
11820;DHT22;5967;48.944;9.240;2022-07-29T14:35:47;26.70;99.90
11820;DHT22;5967;48.944;9.240;2022-07-29T14:38:14;26.60;99.90
11820;DHT22;5967;48.944;9.240;2022-07-29T14:40:42;26.60;99.90
11820;DHT22;5967;48.944;9.240;2022-07-29T14:43:22;26.50;99.90
11820;DHT22;5967;48.944;9.240;2022-07-29T14:45:54;26.50;99.90
11820;DHT22;5967;48.944;9.240;2022-07-29T14:48:19;26.50;99.90
11820;DHT22;5967;48.944;9.240;2022-07-29T14:50:50;26.50;99.90
11820;DHT22;5967;48.944;9.240;2022-07-29T14:53:20;26.50;99.90
11820;DHT22;5967;48.944;9.240;2022-07-29T14:55:48;26.50;99.90
11820;DHT22;5967;48.944;9.240;2022-07-29T14:58:14;26.50;99.90
11820;DHT22;5967;48.944;9.240;2022-07-29T15:00:43;26.50;99.90
11820;DHT22;5967;48.944;9.240;2022-07-29T15:03:08;26.60;99.90
11820;DHT22;5967;48.944;9.240;2022-07-29T15:05:37;26.60;99.90
11820;DHT22;5967;48.944;9.240;2022-07-29T15:08:05;26.60;99.90
11820;DHT22;5967;48.944;9.240;2022-07-29T15:10:40;26.60;99.90
11820;DHT22;5967;48.944;9.240;2022-07-29T15:13:09;26.70;99.90
11820;DHT22;5967;48.944;9.240;2022-07-29T15:15:34;26.70;99.90
11820;DHT22;5967;48.944;9.240;2022-07-29T15:18:00;26.70;99.90
11820;DHT22;5967;48.944;9.240;2022-07-29T15:20:25;26.70;99.90
11820;DHT22;5967;48.944;9.240;2022-07-29T15:22:53;26.70;99.90
11820;DHT22;5967;48.944;9.240;2022-07-29T15:25:24;26.70;99.90
11820;DHT22;5967;48.944;9.240;2022-07-29T15:27:49;26.70;99.90
11820;DHT22;5967;48.944;9.240;2022-07-29T15:30:18;26.70;99.90
11820;DHT22;5967;48.944;9.240;2022-07-29T15:32:47;26.60;99.90
11820;DHT22;5967;48.944;9.240;2022-07-29T15:35:15;26.50;99.90
11820;DHT22;5967;48.944;9.240;2022-07-29T15:37:41;26.50;99.90
11820;DHT22;5967;48.944;9.240;2022-07-29T15:40:07;26.50;99.90
11820;DHT22;5967;48.944;9.240;2022-07-29T15:42:38;26.60;99.90
11820;DHT22;5967;48.944;9.240;2022-07-29T15:45:04;26.70;99.90
11820;DHT22;5967;48.944;9.240;2022-07-29T15:47:30;26.80;99.90
11820;DHT22;5967;48.944;9.240;2022-07-29T15:49:58;26.90;99.90
11820;DHT22;5967;48.944;9.240;2022-07-29T15:52:24;27.00;99.90
11820;DHT22;5967;48.944;9.240;2022-07-29T15:54:58;27.00;99.90
11820;DHT22;5967;48.944;9.240;2022-07-29T15:57:26;27.00;99.90
11820;DHT22;5967;48.944;9.240;2022-07-29T15:59:52;27.10;99.90
11820;DHT22;5967;48.944;9.240;2022-07-29T16:02:18;27.20;99.90
11820;DHT22;5967;48.944;9.240;2022-07-29T16:04:44;27.20;99.90
11820;DHT22;5967;48.944;9.240;2022-07-29T16:07:09;27.20;99.90
11820;DHT22;5967;48.944;9.240;2022-07-29T16:09:35;27.20;99.90
11820;DHT22;5967;48.944;9.240;2022-07-29T16:12:01;27.20;99.90
11820;DHT22;5967;48.944;9.240;2022-07-29T16:14:26;27.20;99.90
11820;DHT22;5967;48.944;9.240;2022-07-29T16:17:01;27.30;99.90
11820;DHT22;5967;48.944;9.240;2022-07-29T16:19:31;27.30;99.90
11820;DHT22;5967;48.944;9.240;2022-07-29T16:21:59;27.30;99.90
11820;DHT22;5967;48.944;9.240;2022-07-29T16:24:25;27.30;99.90
11820;DHT22;5967;48.944;9.240;2022-07-29T16:26:54;27.30;99.90
11820;DHT22;5967;48.944;9.240;2022-07-29T16:29:20;27.40;99.90
11820;DHT22;5967;48.944;9.240;2022-07-29T16:31:46;27.40;99.90
11820;DHT22;5967;48.944;9.240;2022-07-29T16:34:11;27.30;99.90
11820;DHT22;5967;48.944;9.240;2022-07-29T16:36:37;27.30;99.90
11820;DHT22;5967;48.944;9.240;2022-07-29T16:39:02;27.30;99.90
11820;DHT22;5967;48.944;9.240;2022-07-29T16:41:30;27.30;99.90
11820;DHT22;5967;48.944;9.240;2022-07-29T16:43:55;27.30;99.90
11820;DHT22;5967;48.944;9.240;2022-07-29T16:46:21;27.20;99.90
11820;DHT22;5967;48.944;9.240;2022-07-29T16:48:50;27.20;99.90
11820;DHT22;5967;48.944;9.240;2022-07-29T16:51:18;27.20;99.90
11820;DHT22;5967;48.944;9.240;2022-07-29T16:53:44;27.20;99.90
11820;DHT22;5967;48.944;9.240;2022-07-29T16:56:12;27.10;99.90
11820;DHT22;5967;48.944;9.240;2022-07-29T16:58:41;27.10;99.90
11820;DHT22;5967;48.944;9.240;2022-07-29T17:01:07;27.10;99.90